Time;durP1;ratioP1;P1;durP2;ratioP2;P2;SDS_P1;SDS_P2;PMS_P1;PMS_P2;Temp;Humidity;BMP_temperature;BMP_pressure;BME280_temperature;BME280_humidity;BME280_pressure;Samples;Min_cycle;Max_cycle;Signal;HPM_P1;HPM_P2
2023/05/18 00:00:10;;;;;;;7.72;3.80;;;9.80;69.40;;;;;;4994161;28;20438;-68
2023/05/18 00:02:36;;;;;;;7.00;3.47;;;9.70;69.80;;;;;;4999298;28;20848;-68
2023/05/18 00:05:03;;;;;;;6.43;4.13;;;9.70;69.80;;;;;;4995409;28;20442;-68
2023/05/18 00:07:32;;;;;;;8.43;3.55;;;9.70;70.30;;;;;;5002530;28;20519;-68
2023/05/18 00:10:01;;;;;;;9.15;3.72;;;9.70;70.40;;;;;;5003754;28;20449;-68
2023/05/18 00:12:27;;;;;;;4.80;3.50;;;9.70;70.60;;;;;;5002178;28;20850;-68
2023/05/18 00:14:54;;;;;;;6.70;3.10;;;9.70;70.80;;;;;;5002908;28;20799;-68
2023/05/18 00:17:21;;;;;;;7.10;3.70;;;9.60;71.00;;;;;;4999386;28;20440;-67
2023/05/18 00:19:49;;;;;;;5.93;3.40;;;9.60;71.10;;;;;;5006093;28;20501;-66
2023/05/18 00:22:19;;;;;;;7.20;4.10;;;9.50;71.30;;;;;;5006375;28;20760;-68
2023/05/18 00:24:46;;;;;;;6.03;3.50;;;9.50;71.20;;;;;;5000444;28;20910;-68
2023/05/18 00:27:14;;;;;;;5.88;3.50;;;9.40;71.80;;;;;;4997109;28;20526;-67
2023/05/18 00:29:41;;;;;;;7.00;3.80;;;9.30;72.30;;;;;;4997171;28;20477;-67
2023/05/18 00:32:07;;;;;;;6.97;3.70;;;9.30;73.00;;;;;;5001387;28;20440;-67
2023/05/18 00:34:34;;;;;;;7.20;3.85;;;9.30;73.60;;;;;;4999108;28;20692;-67
2023/05/18 00:37:01;;;;;;;7.63;3.95;;;9.20;73.50;;;;;;4999240;28;20438;-66
2023/05/18 00:39:28;;;;;;;6.73;3.80;;;9.20;73.50;;;;;;4999263;28;20413;-68
2023/05/18 00:41:55;;;;;;;8.45;3.60;;;9.30;74.20;;;;;;5004207;28;20460;-66
2023/05/18 00:44:23;;;;;;;6.35;4.20;;;9.30;74.50;;;;;;5003772;28;20438;-67
2023/05/18 00:46:49;;;;;;;6.80;3.42;;;9.30;74.30;;;;;;4999699;28;20434;-68
2023/05/18 00:49:17;;;;;;;6.97;3.80;;;9.30;74.50;;;;;;5004544;28;20493;-68
2023/05/18 00:51:45;;;;;;;7.97;3.90;;;9.20;74.70;;;;;;5001745;28;20436;-68
2023/05/18 00:54:12;;;;;;;6.32;3.63;;;9.20;74.70;;;;;;5002765;28;20467;-67
2023/05/18 00:56:41;;;;;;;5.55;3.53;;;9.30;74.50;;;;;;5002279;28;20429;-68
2023/05/18 00:59:09;;;;;;;7.43;3.60;;;9.20;73.90;;;;;;4996325;28;20945;-68
2023/05/18 01:01:42;;;;;;;6.38;3.40;;;9.20;74.60;;;;;;4988491;28;20537;-67
2023/05/18 01:04:12;;;;;;;7.63;3.50;;;9.10;74.30;;;;;;5015005;28;20515;-66
2023/05/18 01:06:40;;;;;;;7.50;3.30;;;9.20;73.70;;;;;;4995441;28;20431;-67
2023/05/18 01:09:10;;;;;;;7.80;3.50;;;9.20;74.00;;;;;;5002195;28;20437;-67
2023/05/18 01:11:48;;;;;;;6.53;3.58;;;9.10;73.50;;;;;;5002410;28;20440;-68
2023/05/18 01:14:22;;;;;;;7.25;3.00;;;9.10;73.60;;;;;;5005158;28;20534;-68
2023/05/18 01:16:55;;;;;;;6.78;3.67;;;9.10;72.90;;;;;;5001297;28;20448;-67
2023/05/18 01:19:56;;;;;;;6.43;3.40;;;9.20;72.90;;;;;;4998345;28;20480;-67
2023/05/18 01:22:37;;;;;;;5.43;3.25;;;9.10;73.30;;;;;;4991715;28;20439;-68
2023/05/18 01:25:13;;;;;;;6.95;3.42;;;9.10;73.20;;;;;;4999374;28;20507;-67
2023/05/18 01:27:45;;;;;;;6.63;2.83;;;9.10;73.40;;;;;;5003241;28;20425;-68
2023/05/18 01:30:13;;;;;;;6.78;3.50;;;9.00;73.50;;;;;;5004091;28;20987;-68
2023/05/18 01:32:41;;;;;;;4.22;3.40;;;9.00;73.90;;;;;;4994223;28;20810;-67
2023/05/18 01:35:08;;;;;;;8.43;4.10;;;8.90;73.70;;;;;;5006575;28;20462;-68
2023/05/18 01:37:35;;;;;;;6.95;2.90;;;8.90;74.20;;;;;;5001607;28;20463;-67
2023/05/18 01:40:04;;;;;;;5.20;3.10;;;8.90;74.50;;;;;;4996166;28;20445;-67
2023/05/18 01:42:34;;;;;;;5.40;3.03;;;8.90;74.40;;;;;;4995206;28;20500;-67
2023/05/18 01:45:05;;;;;;;6.60;3.50;;;8.80;74.40;;;;;;5002561;28;20860;-68
2023/05/18 01:47:33;;;;;;;7.00;3.55;;;8.70;75.00;;;;;;5027815;23;20465;-77
2023/05/18 01:50:05;;;;;;;7.38;3.92;;;8.70;74.90;;;;;;5023388;28;20434;-77
2023/05/18 01:52:36;;;;;;;7.32;3.30;;;8.60;75.60;;;;;;5023564;28;20464;-77
2023/05/18 01:55:04;;;;;;;7.15;3.65;;;8.50;75.80;;;;;;5027498;28;20439;-77
2023/05/18 01:57:33;;;;;;;7.30;4.20;;;8.50;76.30;;;;;;5028311;28;20438;-77
2023/05/18 02:00:03;;;;;;;6.80;3.33;;;8.50;76.10;;;;;;5028998;28;20423;-77
2023/05/18 02:02:30;;;;;;;5.53;3.10;;;8.50;76.00;;;;;;5026345;28;20440;-77
2023/05/18 02:04:57;;;;;;;8.68;3.50;;;8.50;75.40;;;;;;5026870;28;20442;-77
2023/05/18 02:07:23;;;;;;;6.28;3.60;;;8.40;76.20;;;;;;5028291;28;20947;-77
2023/05/18 02:09:50;;;;;;;6.25;3.30;;;8.40;76.60;;;;;;5015633;28;20421;-77
2023/05/18 02:12:17;;;;;;;7.17;3.60;;;8.40;77.10;;;;;;5027224;28;20442;-77
2023/05/18 02:14:43;;;;;;;8.02;3.53;;;8.40;76.90;;;;;;5027171;28;20435;-77
2023/05/18 02:17:11;;;;;;;7.95;3.33;;;8.40;76.90;;;;;;5025565;28;20438;-78
2023/05/18 02:19:38;;;;;;;6.78;4.50;;;8.40;77.90;;;;;;5027004;28;20438;-78
2023/05/18 02:22:05;;;;;;;6.53;4.10;;;8.30;77.30;;;;;;5027492;28;20442;-77
2023/05/18 02:24:32;;;;;;;6.55;3.80;;;8.30;77.70;;;;;;5027944;28;20884;-77
2023/05/18 02:27:00;;;;;;;6.53;3.65;;;8.30;78.00;;;;;;5025910;28;20442;-78
2023/05/18 02:29:27;;;;;;;4.95;3.70;;;8.30;77.90;;;;;;5027443;28;20466;-78
2023/05/18 02:31:53;;;;;;;5.80;3.40;;;8.20;77.40;;;;;;5027133;28;20435;-78
2023/05/18 02:34:23;;;;;;;7.00;4.00;;;8.10;77.90;;;;;;5027788;28;20442;-77
2023/05/18 02:36:50;;;;;;;8.57;4.00;;;8.00;78.40;;;;;;5018039;28;20490;-78
2023/05/18 02:39:17;;;;;;;4.47;3.70;;;8.00;79.00;;;;;;5028860;28;20916;-78
2023/05/18 02:41:43;;;;;;;5.85;3.55;;;8.00;78.70;;;;;;5027502;28;20430;-78
2023/05/18 02:44:11;;;;;;;5.47;3.90;;;7.90;78.60;;;;;;5020064;28;20933;-78
2023/05/18 02:46:37;;;;;;;7.15;3.80;;;7.80;79.00;;;;;;5025582;28;20439;-77
2023/05/18 02:49:04;;;;;;;5.57;3.40;;;7.80;79.20;;;;;;5026089;28;20438;-77
2023/05/18 02:51:32;;;;;;;5.72;4.10;;;7.70;79.40;;;;;;5026794;28;20415;-77
2023/05/18 02:53:59;;;;;;;7.53;4.20;;;7.70;80.10;;;;;;5027838;28;20434;-77
2023/05/18 02:56:27;;;;;;;7.50;3.97;;;7.70;80.40;;;;;;5027089;28;20438;-78
2023/05/18 02:58:56;;;;;;;8.30;3.80;;;7.60;80.50;;;;;;5025525;28;20434;-78
2023/05/18 03:01:25;;;;;;;7.50;5.30;;;7.60;81.10;;;;;;5025927;28;20931;-77
2023/05/18 03:03:52;;;;;;;5.53;3.25;;;7.70;81.60;;;;;;5026450;28;20438;-78
2023/05/18 03:06:22;;;;;;;5.28;3.45;;;7.70;81.10;;;;;;5027985;28;20439;-78
2023/05/18 03:08:53;;;;;;;6.00;3.80;;;7.70;80.90;;;;;;5026411;28;20430;-77
2023/05/18 03:11:20;;;;;;;6.80;3.78;;;7.70;81.20;;;;;;5025212;28;20451;-77
2023/05/18 03:13:47;;;;;;;7.63;4.30;;;7.60;81.20;;;;;;5028030;28;20438;-77
2023/05/18 03:16:13;;;;;;;6.10;3.07;;;7.60;81.70;;;;;;5019488;28;20439;-77
2023/05/18 03:18:41;;;;;;;5.28;3.53;;;7.60;81.30;;;;;;5027488;28;20433;-78
2023/05/18 03:21:08;;;;;;;6.97;4.43;;;7.60;81.40;;;;;;5024201;28;20551;-78
2023/05/18 03:23:35;;;;;;;5.32;3.30;;;7.50;81.50;;;;;;5023733;28;20517;-77
2023/05/18 03:26:10;;;;;;;4.47;3.40;;;7.40;81.20;;;;;;5027468;28;20442;-77
2023/05/18 03:28:37;;;;;;;8.15;3.70;;;7.30;81.80;;;;;;5028058;28;20528;-77
2023/05/18 03:31:04;;;;;;;6.60;3.75;;;7.30;82.40;;;;;;5026276;28;20435;-78
2023/05/18 03:33:31;;;;;;;7.35;3.58;;;7.30;82.80;;;;;;5023716;28;20924;-77
2023/05/18 03:36:02;;;;;;;4.60;3.20;;;7.30;82.20;;;;;;5025732;28;20431;-76
2023/05/18 03:38:28;;;;;;;4.07;3.30;;;7.20;82.50;;;;;;5026517;28;20445;-76
2023/05/18 03:40:55;;;;;;;6.70;4.10;;;7.20;82.80;;;;;;5030041;28;20439;-78
2023/05/18 03:43:24;;;;;;;7.68;3.67;;;7.20;83.00;;;;;;5032097;28;20928;-78
2023/05/18 03:45:51;;;;;;;6.20;4.30;;;7.20;83.00;;;;;;5029192;28;20430;-76
2023/05/18 03:48:18;;;;;;;7.93;3.75;;;7.20;83.30;;;;;;5032434;28;20415;-78
2023/05/18 03:50:45;;;;;;;5.22;4.05;;;7.20;82.50;;;;;;5031315;28;20811;-76
2023/05/18 03:53:12;;;;;;;7.93;4.53;;;7.20;83.30;;;;;;5037079;28;20470;-79
2023/05/18 03:55:38;;;;;;;7.18;4.13;;;7.10;83.50;;;;;;5033612;28;20996;-79
2023/05/18 03:58:05;;;;;;;7.63;4.18;;;7.10;83.50;;;;;;5036383;28;20431;-79
2023/05/18 04:00:34;;;;;;;5.95;4.05;;;7.20;84.70;;;;;;5031571;28;21034;-77
2023/05/18 04:03:02;;;;;;;5.57;4.00;;;7.20;83.80;;;;;;5032395;28;20419;-77
2023/05/18 04:05:28;;;;;;;8.23;3.88;;;7.10;83.70;;;;;;5027975;28;20442;-78
2023/05/18 04:07:56;;;;;;;6.90;3.70;;;7.20;84.30;;;;;;5029560;28;20523;-77
2023/05/18 04:10:23;;;;;;;6.57;3.80;;;7.20;83.90;;;;;;5029234;28;20492;-77
2023/05/18 04:12:50;;;;;;;6.30;4.07;;;7.20;83.30;;;;;;5030697;28;20769;-78
2023/05/18 04:15:16;;;;;;;5.60;3.60;;;7.10;83.50;;;;;;5028835;28;20438;-76
2023/05/18 04:17:44;;;;;;;5.35;3.80;;;7.20;84.60;;;;;;5031600;28;20458;-79
2023/05/18 04:20:13;;;;;;;6.90;3.80;;;7.20;85.00;;;;;;5029732;28;20458;-76
2023/05/18 04:22:44;;;;;;;5.15;3.78;;;7.30;84.80;;;;;;5030814;28;20435;-77
2023/05/18 04:25:12;;;;;;;6.60;3.55;;;7.30;84.50;;;;;;5022031;28;20490;-78
2023/05/18 04:27:40;;;;;;;5.60;3.30;;;7.30;83.50;;;;;;5033046;28;20419;-78
2023/05/18 04:30:09;;;;;;;6.83;3.90;;;7.20;83.60;;;;;;5032743;28;20571;-77
2023/05/18 04:32:36;;;;;;;5.53;3.80;;;7.20;84.20;;;;;;5029013;28;20463;-80
2023/05/18 04:35:05;;;;;;;5.65;3.72;;;7.20;85.00;;;;;;5037847;28;20940;-79
2023/05/18 04:37:32;;;;;;;6.75;3.70;;;7.20;85.00;;;;;;5036566;28;20468;-79
2023/05/18 04:40:00;;;;;;;6.45;3.58;;;7.30;84.50;;;;;;5033292;28;20901;-79
2023/05/18 04:42:27;;;;;;;5.63;3.70;;;7.30;84.50;;;;;;5032023;28;20441;-79
2023/05/18 04:44:54;;;;;;;7.50;4.10;;;7.30;84.90;;;;;;5032427;28;20442;-79
2023/05/18 04:47:22;;;;;;;8.23;4.40;;;7.30;86.70;;;;;;5029761;28;20427;-79
2023/05/18 04:49:52;;;;;;;8.13;4.30;;;7.40;88.50;;;;;;5030669;28;20434;-79
2023/05/18 04:52:20;;;;;;;6.60;4.47;;;7.50;89.00;;;;;;5029776;28;20430;-78
2023/05/18 04:54:47;;;;;;;4.97;4.38;;;7.50;89.30;;;;;;5024139;28;20971;-79
2023/05/18 04:57:14;;;;;;;7.83;4.53;;;7.60;89.00;;;;;;5027944;28;20473;-79
2023/05/18 04:59:46;;;;;;;5.90;3.70;;;7.60;88.90;;;;;;5027330;28;20435;-79
2023/05/18 05:02:12;;;;;;;7.10;4.00;;;7.60;89.10;;;;;;5025684;28;20442;-79
2023/05/18 05:04:40;;;;;;;5.20;4.45;;;7.70;89.00;;;;;;5030954;28;20875;-77
2023/05/18 05:07:06;;;;;;;7.32;4.22;;;7.60;88.50;;;;;;5041463;28;20434;-78
2023/05/18 05:09:35;;;;;;;7.22;4.05;;;7.70;89.10;;;;;;5033363;28;20435;-78
2023/05/18 05:12:02;;;;;;;6.82;3.97;;;7.70;89.20;;;;;;5033729;28;20489;-79
2023/05/18 05:14:29;;;;;;;5.72;3.90;;;7.80;88.20;;;;;;5028367;28;20572;-79
2023/05/18 05:16:56;;;;;;;7.03;3.58;;;7.80;87.90;;;;;;5032177;28;20515;-79
2023/05/18 05:19:25;;;;;;;6.05;3.58;;;7.80;87.20;;;;;;5041984;28;20434;-80
2023/05/18 05:21:51;;;;;;;6.63;3.80;;;7.80;86.60;;;;;;5038581;28;20808;-80
2023/05/18 05:24:18;;;;;;;6.68;3.92;;;7.80;85.40;;;;;;5031955;28;20435;-79
2023/05/18 05:26:46;;;;;;;8.65;4.13;;;7.90;86.10;;;;;;5031850;28;20419;-78
2023/05/18 05:29:13;;;;;;;4.70;3.80;;;7.90;86.90;;;;;;5023696;28;20411;-79
2023/05/18 05:31:40;;;;;;;6.47;4.10;;;7.90;87.90;;;;;;5032574;28;20431;-79
2023/05/18 05:34:06;;;;;;;6.55;4.18;;;8.00;88.10;;;;;;5034166;28;20947;-78
2023/05/18 05:36:34;;;;;;;6.60;4.70;;;8.00;88.20;;;;;;5022132;28;20469;-79
2023/05/18 05:39:01;;;;;;;8.48;4.72;;;8.10;88.40;;;;;;5036775;28;20435;-80
2023/05/18 05:41:28;;;;;;;7.40;5.07;;;8.20;88.20;;;;;;5039576;28;20519;-79
2023/05/18 05:43:56;;;;;;;7.10;4.30;;;8.20;87.80;;;;;;5039116;28;20430;-79
2023/05/18 05:46:22;;;;;;;6.85;4.30;;;8.30;88.00;;;;;;5038581;28;20439;-79
2023/05/18 05:48:49;;;;;;;8.10;4.80;;;8.30;87.90;;;;;;5038251;28;20453;-81
2023/05/18 05:51:16;;;;;;;6.43;4.53;;;8.40;88.00;;;;;;5034728;28;20461;-82
2023/05/18 05:53:46;;;;;;;8.38;4.03;;;8.40;88.20;;;;;;5028860;28;20945;-81
2023/05/18 05:56:13;;;;;;;7.07;4.10;;;8.50;87.70;;;;;;5029843;28;20445;-81
2023/05/18 05:58:40;;;;;;;5.93;4.20;;;8.50;87.20;;;;;;5038506;28;20433;-79
2023/05/18 06:01:08;;;;;;;6.05;3.70;;;8.50;86.30;;;;;;5036265;28;20431;-79
2023/05/18 06:03:35;;;;;;;7.65;4.20;;;8.50;83.20;;;;;;5031528;28;20422;-76
2023/05/18 06:06:02;;;;;;;5.55;3.90;;;8.50;82.70;;;;;;5028604;28;20439;-77
2023/05/18 06:08:29;;;;;;;7.40;4.25;;;8.50;83.70;;;;;;5027640;28;20542;-77
2023/05/18 06:10:56;;;;;;;6.40;4.20;;;8.60;84.00;;;;;;5031501;28;20435;-78
2023/05/18 06:13:23;;;;;;;6.63;3.83;;;8.70;82.80;;;;;;5040448;28;20419;-78
2023/05/18 06:15:50;;;;;;;5.00;3.60;;;8.80;83.00;;;;;;5032761;28;20442;-77
2023/05/18 06:18:18;;;;;;;6.80;3.40;;;8.80;80.40;;;;;;5037157;28;20562;-78
2023/05/18 06:20:45;;;;;;;7.90;3.70;;;8.90;79.70;;;;;;5030514;28;20441;-77
2023/05/18 06:23:12;;;;;;;6.05;3.42;;;8.90;79.10;;;;;;5033198;28;20415;-76
2023/05/18 06:25:39;;;;;;;8.45;3.78;;;8.90;79.60;;;;;;5030161;28;20446;-78
2023/05/18 06:28:05;;;;;;;5.75;3.70;;;9.00;79.80;;;;;;5031438;28;20438;-76
2023/05/18 06:30:32;;;;;;;5.77;3.37;;;9.10;78.90;;;;;;5029296;28;20431;-75
2023/05/18 06:33:00;;;;;;;5.80;4.10;;;9.20;79.70;;;;;;5032987;28;20426;-75
2023/05/18 06:35:28;;;;;;;5.45;3.72;;;9.20;77.80;;;;;;5032938;28;20446;-67
2023/05/18 06:37:55;;;;;;;7.18;3.60;;;9.40;77.30;;;;;;5032838;28;20473;-76
2023/05/18 06:40:22;;;;;;;4.17;3.40;;;9.50;78.20;;;;;;5033227;28;20498;-76
2023/05/18 06:42:48;;;;;;;9.07;3.75;;;9.60;76.30;;;;;;5032921;28;20414;-77
2023/05/18 06:45:15;;;;;;;7.50;3.90;;;9.70;76.70;;;;;;5028370;28;20431;-76
2023/05/18 06:47:42;;;;;;;7.20;3.30;;;9.80;77.90;;;;;;5030687;28;20430;-76
2023/05/18 06:50:10;;;;;;;4.10;3.13;;;9.90;75.30;;;;;;5014466;28;20534;-76
2023/05/18 06:52:38;;;;;;;7.50;3.67;;;10.00;74.80;;;;;;5029236;28;20431;-78
2023/05/18 06:55:06;;;;;;;6.82;3.60;;;10.10;73.50;;;;;;5026984;28;20928;-77
2023/05/18 06:57:33;;;;;;;6.03;3.30;;;10.20;72.60;;;;;;5028958;28;20430;-77
2023/05/18 07:00:00;;;;;;;5.65;3.30;;;10.40;72.30;;;;;;5027999;28;20427;-76
2023/05/18 07:02:27;;;;;;;5.45;3.40;;;10.50;71.90;;;;;;5028146;28;20921;-77
2023/05/18 07:04:54;;;;;;;5.10;3.13;;;10.60;71.50;;;;;;5027479;28;20427;-77
2023/05/18 07:07:21;;;;;;;6.40;2.97;;;10.80;70.40;;;;;;5028252;28;20516;-76
2023/05/18 07:09:49;;;;;;;5.13;3.20;;;10.90;69.20;;;;;;5021144;28;20782;-76
2023/05/18 07:12:16;;;;;;;5.20;3.15;;;11.10;68.40;;;;;;5023708;28;20453;-77
2023/05/18 07:14:43;;;;;;;5.35;3.33;;;11.20;67.10;;;;;;5027593;28;20505;-76
2023/05/18 07:17:10;;;;;;;4.68;3.15;;;11.40;66.90;;;;;;5027681;28;20909;-78
2023/05/18 07:19:36;;;;;;;5.28;3.05;;;11.50;66.40;;;;;;5027491;28;20430;-75
2023/05/18 07:22:03;;;;;;;5.15;3.00;;;11.60;65.40;;;;;;5025096;28;20622;-77
2023/05/18 07:24:30;;;;;;;7.10;3.55;;;11.80;64.70;;;;;;5028309;28;20423;-76
2023/05/18 07:26:58;;;;;;;5.53;3.58;;;11.90;64.00;;;;;;5025948;28;20882;-76
2023/05/18 07:29:25;;;;;;;5.38;2.97;;;12.00;63.60;;;;;;5026038;28;20419;-74
2023/05/18 07:31:52;;;;;;;5.55;3.08;;;12.20;62.50;;;;;;5025814;28;20427;-75
2023/05/18 07:34:19;;;;;;;5.80;3.40;;;12.30;62.90;;;;;;5028611;28;20434;-77
2023/05/18 07:36:45;;;;;;;5.43;3.20;;;12.40;61.40;;;;;;5026790;28;20442;-77
2023/05/18 07:39:17;;;;;;;6.38;3.40;;;12.50;59.40;;;;;;5027932;28;20431;-75
2023/05/18 07:41:44;;;;;;;5.60;3.15;;;12.40;59.60;;;;;;5026478;28;20466;-78
2023/05/18 07:44:13;;;;;;;7.82;3.80;;;12.50;60.90;;;;;;5028355;28;20422;-77
2023/05/18 07:46:40;;;;;;;5.57;3.60;;;12.60;61.60;;;;;;5027706;28;20422;-76
2023/05/18 07:49:06;;;;;;;5.80;2.83;;;12.70;60.40;;;;;;5026055;28;21018;-75
2023/05/18 07:51:34;;;;;;;3.78;2.70;;;12.90;59.30;;;;;;5026572;28;20439;-77
2023/05/18 07:54:00;;;;;;;8.20;4.40;;;13.00;59.00;;;;;;5027184;28;20435;-75
2023/05/18 07:56:27;;;;;;;6.20;3.10;;;13.10;59.00;;;;;;5026090;28;20445;-75
2023/05/18 07:58:54;;;;;;;4.95;3.00;;;13.30;58.40;;;;;;5026905;28;20435;-74
2023/05/18 08:01:26;;;;;;;5.93;3.30;;;13.50;57.80;;;;;;5023579;28;20419;-75
2023/05/18 08:03:53;;;;;;;4.93;2.85;;;13.60;56.60;;;;;;5029688;28;20977;-77
2023/05/18 08:06:19;;;;;;;4.50;2.70;;;13.70;55.80;;;;;;5025517;28;20434;-75
2023/05/18 08:08:46;;;;;;;6.55;2.80;;;13.80;55.70;;;;;;5028176;28;20431;-76
2023/05/18 08:11:13;;;;;;;5.45;3.10;;;14.00;55.10;;;;;;5030310;28;20821;-76
2023/05/18 08:13:40;;;;;;;4.18;3.00;;;14.20;54.80;;;;;;5018755;28;20434;-76
2023/05/18 08:16:07;;;;;;;4.30;2.70;;;14.40;54.10;;;;;;5024720;28;20431;-76
2023/05/18 08:18:35;;;;;;;7.10;3.10;;;14.60;53.90;;;;;;5025992;28;20440;-77
2023/05/18 08:21:03;;;;;;;4.55;3.10;;;14.70;51.80;;;;;;5026594;28;20454;-78
2023/05/18 08:23:30;;;;;;;4.35;2.70;;;14.90;51.60;;;;;;5041250;28;20465;-78
2023/05/18 08:25:58;;;;;;;6.00;3.05;;;15.00;52.00;;;;;;5044776;28;20426;-78
2023/05/18 08:28:26;;;;;;;5.55;2.75;;;15.20;50.40;;;;;;5053353;28;20429;-78
2023/05/18 08:30:53;;;;;;;4.75;2.80;;;15.40;51.30;;;;;;5053416;28;20415;-78
2023/05/18 08:33:20;;;;;;;5.65;2.70;;;15.50;49.30;;;;;;5047283;28;20526;-78
2023/05/18 08:35:48;;;;;;;6.65;3.10;;;15.60;49.90;;;;;;5049194;28;21143;-78
2023/05/18 08:38:15;;;;;;;4.88;2.50;;;15.80;48.30;;;;;;5045124;28;20458;-78
2023/05/18 08:40:46;;;;;;;5.28;2.60;;;15.90;48.10;;;;;;5045634;28;20439;-77
2023/05/18 08:43:21;;;;;;;5.60;2.90;;;16.00;48.00;;;;;;5029355;28;20435;-76
2023/05/18 08:45:52;;;;;;;4.30;2.10;;;16.20;48.00;;;;;;5028746;28;20496;-77
2023/05/18 08:48:21;;;;;;;4.10;2.30;;;16.30;46.40;;;;;;5030410;28;20431;-77
2023/05/18 08:50:52;;;;;;;6.13;2.20;;;16.40;45.30;;;;;;5027644;28;20439;-77
2023/05/18 08:53:21;;;;;;;4.55;2.30;;;16.60;44.70;;;;;;5024264;28;20525;-77
2023/05/18 08:55:50;;;;;;;4.30;2.40;;;16.80;45.10;;;;;;5028539;28;20441;-76
2023/05/18 08:58:21;;;;;;;4.38;2.22;;;16.90;44.50;;;;;;5026681;28;20470;-76
2023/05/18 09:00:52;;;;;;;5.50;2.67;;;17.10;44.60;;;;;;5019898;28;20438;-76
2023/05/18 09:03:20;;;;;;;6.57;2.40;;;17.20;44.10;;;;;;5024228;28;20468;-75
2023/05/18 09:05:49;;;;;;;6.03;2.78;;;17.30;43.30;;;;;;5033154;28;20917;-76
2023/05/18 09:08:18;;;;;;;6.30;3.17;;;17.40;42.60;;;;;;5017196;28;20430;-76
2023/05/18 09:10:47;;;;;;;4.10;2.20;;;17.40;43.20;;;;;;5028419;28;20427;-76
2023/05/18 09:13:18;;;;;;;5.35;2.45;;;17.50;42.60;;;;;;5015438;28;20442;-76
2023/05/18 09:15:45;;;;;;;5.90;2.53;;;17.50;43.10;;;;;;5026823;28;20462;-76
2023/05/18 09:18:12;;;;;;;5.73;2.53;;;17.50;42.10;;;;;;5029873;28;20921;-77
2023/05/18 09:20:39;;;;;;;4.40;2.30;;;17.50;41.40;;;;;;5022639;28;20426;-75
2023/05/18 09:23:07;;;;;;;4.85;2.53;;;17.50;42.20;;;;;;5029326;28;20929;-76
2023/05/18 09:25:36;;;;;;;4.45;2.08;;;17.50;42.10;;;;;;5029059;28;20434;-75
2023/05/18 09:28:03;;;;;;;4.80;1.98;;;17.50;41.50;;;;;;5031406;28;20433;-74
2023/05/18 09:30:30;;;;;;;4.35;2.38;;;17.50;41.20;;;;;;5030570;28;20494;-76
2023/05/18 09:32:57;;;;;;;4.00;2.15;;;17.60;41.20;;;;;;5030614;28;21052;-79
2023/05/18 09:35:25;;;;;;;3.80;2.20;;;17.50;41.80;;;;;;5029420;28;20826;-76
2023/05/18 09:37:52;;;;;;;3.95;2.15;;;17.40;41.80;;;;;;5021974;28;20416;-76
2023/05/18 09:40:29;;;;;;;5.50;2.85;;;17.40;41.50;;;;;;5029589;28;20509;-76
2023/05/18 09:42:56;;;;;;;4.57;2.30;;;17.20;40.40;;;;;;5028112;28;20800;-76
2023/05/18 09:45:24;;;;;;;4.60;2.40;;;17.10;41.20;;;;;;5028920;28;20415;-76
2023/05/18 09:47:52;;;;;;;3.90;2.30;;;17.10;41.80;;;;;;5029965;28;20431;-76
2023/05/18 09:50:19;;;;;;;4.45;2.90;;;17.10;41.50;;;;;;5020395;28;20433;-76
2023/05/18 09:52:48;;;;;;;5.78;2.40;;;17.20;41.30;;;;;;5020701;28;20466;-67
2023/05/18 09:55:16;;;;;;;4.15;2.00;;;17.30;41.90;;;;;;5025629;28;20434;-67
2023/05/18 09:57:45;;;;;;;6.05;2.60;;;17.40;41.30;;;;;;5028598;28;20418;-67
2023/05/18 10:00:14;;;;;;;5.65;1.80;;;17.80;41.50;;;;;;5027053;28;20913;-67
2023/05/18 10:02:44;;;;;;;3.30;2.00;;;18.20;40.70;;;;;;5028883;28;20502;-67
2023/05/18 10:05:19;;;;;;;3.88;2.10;;;18.60;38.60;;;;;;5029022;28;20453;-69
2023/05/18 10:07:47;;;;;;;5.00;1.90;;;18.90;39.30;;;;;;5030792;28;20842;-68
2023/05/18 10:10:17;;;;;;;3.20;1.98;;;19.00;37.00;;;;;;5015605;28;20952;-77
2023/05/18 10:12:45;;;;;;;4.13;2.00;;;19.10;37.00;;;;;;5025610;28;20518;-77
2023/05/18 10:15:19;;;;;;;3.80;2.00;;;19.30;36.80;;;;;;5026339;28;20435;-76
2023/05/18 10:17:47;;;;;;;3.90;1.90;;;19.50;36.20;;;;;;5024188;28;20779;-77
2023/05/18 10:20:18;;;;;;;3.70;1.90;;;19.80;36.70;;;;;;5025753;28;20461;-77
2023/05/18 10:22:46;;;;;;;4.95;2.50;;;20.00;36.40;;;;;;5029451;28;20430;-77
2023/05/18 10:25:16;;;;;;;4.95;2.10;;;20.20;36.70;;;;;;5027934;28;20510;-76
2023/05/18 10:27:46;;;;;;;4.60;2.25;;;20.40;35.00;;;;;;5029197;28;20419;-77
2023/05/18 10:30:16;;;;;;;5.00;2.47;;;20.50;35.60;;;;;;5023253;28;20431;-75
2023/05/18 10:32:44;;;;;;;4.85;2.40;;;20.90;35.40;;;;;;5025647;28;20419;-77
2023/05/18 10:35:12;;;;;;;4.65;1.83;;;21.20;34.10;;;;;;5024790;28;20632;-74
2023/05/18 10:37:40;;;;;;;6.05;2.20;;;21.50;33.40;;;;;;5029327;28;20449;-77
2023/05/18 10:40:10;;;;;;;4.47;2.33;;;21.60;32.40;;;;;;5028355;28;20434;-79
2023/05/18 10:42:38;;;;;;;3.30;1.70;;;21.40;32.40;;;;;;5027657;28;20473;-76
2023/05/18 10:45:09;;;;;;;4.43;2.40;;;21.30;32.70;;;;;;5020472;28;20924;-73
2023/05/18 10:47:38;;;;;;;3.47;1.90;;;21.40;33.30;;;;;;5028132;28;20414;-75
2023/05/18 10:50:06;;;;;;;3.90;2.00;;;21.60;32.70;;;;;;5026218;28;20457;-78
2023/05/18 10:52:33;;;;;;;5.45;2.10;;;21.80;32.80;;;;;;5027969;28;20446;-75
2023/05/18 10:55:00;;;;;;;4.15;1.92;;;21.90;31.70;;;;;;5025118;28;20431;-77
2023/05/18 10:57:33;;;;;;;4.45;1.85;;;21.80;31.90;;;;;;5030181;28;20430;-80
2023/05/18 11:00:00;;;;;;;3.70;1.80;;;21.70;32.10;;;;;;5026862;28;20792;-77
2023/05/18 11:02:29;;;;;;;5.30;1.98;;;21.20;31.70;;;;;;5026009;28;20512;-78
2023/05/18 11:04:56;;;;;;;4.50;1.83;;;21.00;32.30;;;;;;5029842;28;20431;-76
2023/05/18 11:07:27;;;;;;;4.25;2.00;;;21.10;33.00;;;;;;5025424;28;21271;-78
2023/05/18 11:09:54;;;;;;;4.83;2.10;;;21.20;32.50;;;;;;5025361;28;20588;-76
2023/05/18 11:12:23;;;;;;;3.72;1.75;;;21.40;32.10;;;;;;5034942;28;20415;-79
2023/05/18 11:14:51;;;;;;;3.50;1.70;;;21.70;31.70;;;;;;5032491;28;20450;-76
2023/05/18 11:17:19;;;;;;;3.43;2.13;;;22.00;32.10;;;;;;5034510;28;20426;-79
2023/05/18 11:20:16;;;;;;;3.70;2.20;;;22.20;29.70;;;;;;5033629;28;20430;-79
2023/05/18 11:22:50;;;;;;;5.10;1.67;;;22.00;30.00;;;;;;5028672;28;20427;-76
2023/05/18 11:25:53;;;;;;;3.45;2.00;;;22.00;31.10;;;;;;5029177;28;20782;-77
2023/05/18 11:28:22;;;;;;;3.90;1.90;;;22.20;30.10;;;;;;5017488;28;20423;-77
2023/05/18 11:30:50;;;;;;;3.03;1.90;;;22.30;31.00;;;;;;5020356;28;20432;-78
2023/05/18 11:33:23;;;;;;;3.83;2.20;;;22.50;30.80;;;;;;5029043;28;20431;-78
2023/05/18 11:36:01;;;;;;;3.50;1.92;;;22.70;30.00;;;;;;5028240;28;20443;-76
2023/05/18 11:38:46;;;;;;;4.35;2.05;;;23.00;30.20;;;;;;5026751;28;20524;-78
2023/05/18 11:41:29;;;;;;;4.18;2.00;;;23.10;29.80;;;;;;5028362;28;20933;-69
2023/05/18 11:44:20;;;;;;;4.18;2.30;;;23.20;30.00;;;;;;5017952;28;20462;-69
2023/05/18 11:46:56;;;;;;;4.07;2.03;;;23.10;31.40;;;;;;5016227;28;20502;-65
2023/05/18 11:49:24;;;;;;;5.03;1.70;;;23.10;31.00;;;;;;5028096;28;20434;-68
2023/05/18 11:52:05;;;;;;;3.55;2.00;;;23.30;30.00;;;;;;5028813;28;20419;-70
2023/05/18 11:54:43;;;;;;;3.95;1.70;;;23.40;30.80;;;;;;5022298;28;21280;-68
2023/05/18 11:57:11;;;;;;;3.10;1.77;;;23.60;31.80;;;;;;5025887;28;20945;-70
2023/05/18 11:59:40;;;;;;;3.95;2.10;;;23.80;30.60;;;;;;5028839;28;20801;-68
2023/05/18 12:02:10;;;;;;;3.00;1.80;;;23.90;30.40;;;;;;5029476;28;20913;-68
2023/05/18 12:04:43;;;;;;;2.90;1.77;;;24.10;29.40;;;;;;5032051;28;20423;-67
2023/05/18 12:07:11;;;;;;;4.03;1.60;;;24.00;30.30;;;;;;5023917;28;20427;-68
2023/05/18 12:09:42;;;;;;;6.50;1.80;;;24.10;30.90;;;;;;5019350;28;20503;-68
2023/05/18 12:12:10;;;;;;;3.60;2.20;;;24.20;29.20;;;;;;5032257;28;20418;-66
2023/05/18 12:14:38;;;;;;;4.25;2.42;;;24.40;29.80;;;;;;5029713;28;20863;-66
2023/05/18 12:17:06;;;;;;;3.95;2.22;;;24.60;29.30;;;;;;5022947;28;20421;-67
2023/05/18 12:19:37;;;;;;;3.30;2.20;;;24.90;28.40;;;;;;5029136;28;20462;-67
2023/05/18 12:22:05;;;;;;;3.63;1.90;;;25.20;28.50;;;;;;5028975;28;20489;-69
2023/05/18 12:24:33;;;;;;;4.85;2.10;;;25.20;28.50;;;;;;5031671;28;20425;-69
2023/05/18 12:27:03;;;;;;;3.85;1.60;;;25.20;29.50;;;;;;5030570;28;20898;-70
2023/05/18 12:29:30;;;;;;;3.70;1.65;;;25.20;29.30;;;;;;5030906;28;20419;-69
2023/05/18 12:31:57;;;;;;;3.05;1.50;;;25.20;26.90;;;;;;5032177;28;20786;-69
2023/05/18 12:34:28;;;;;;;3.53;1.60;;;25.30;27.10;;;;;;5026713;28;20439;-69
2023/05/18 12:36:55;;;;;;;2.50;1.10;;;25.40;28.00;;;;;;5032663;28;20914;-70
2023/05/18 12:39:24;;;;;;;3.28;1.83;;;25.40;28.00;;;;;;5033284;28;20419;-71
2023/05/18 12:41:53;;;;;;;3.73;2.00;;;25.50;27.80;;;;;;5031844;28;20431;-69
2023/05/18 12:44:20;;;;;;;4.20;1.80;;;25.70;28.00;;;;;;5027904;28;20430;-70
2023/05/18 12:46:48;;;;;;;2.10;1.70;;;25.90;28.80;;;;;;5022438;28;20554;-71
2023/05/18 12:49:17;;;;;;;3.22;2.00;;;25.90;28.00;;;;;;5031000;28;20431;-69
2023/05/18 12:51:44;;;;;;;4.38;1.92;;;26.00;27.60;;;;;;5029287;28;20892;-70
2023/05/18 12:54:11;;;;;;;2.50;1.30;;;26.30;27.90;;;;;;5023183;28;20420;-69
2023/05/18 12:56:58;;;;;;;3.03;1.98;;;26.80;27.90;;;;;;5031845;28;20414;-69
2023/05/18 12:59:26;;;;;;;3.00;1.40;;;27.20;26.40;;;;;;5030438;28;20516;-73